sensor_id;sensor_type;location;lat;lon;timestamp;P1;durP1;ratioP1;P2;durP2;ratioP2
8044;SDS011;4065;48.754;9.982;2022-11-23T00:01:47;9.45;;;5.43;;
8044;SDS011;4065;48.754;9.982;2022-11-23T00:04:50;7.13;;;5.47;;
8044;SDS011;4065;48.754;9.982;2022-11-23T00:07:51;9.13;;;6.97;;
8044;SDS011;4065;48.754;9.982;2022-11-23T00:10:56;8.40;;;6.97;;
8044;SDS011;4065;48.754;9.982;2022-11-23T00:13:58;10.70;;;6.07;;
8044;SDS011;4065;48.754;9.982;2022-11-23T00:16:59;9.52;;;5.97;;
8044;SDS011;4065;48.754;9.982;2022-11-23T00:20:02;10.57;;;5.75;;
8044;SDS011;4065;48.754;9.982;2022-11-23T00:23:05;7.97;;;5.75;;
8044;SDS011;4065;48.754;9.982;2022-11-23T00:26:06;8.68;;;5.60;;
8044;SDS011;4065;48.754;9.982;2022-11-23T00:29:08;6.68;;;6.03;;
8044;SDS011;4065;48.754;9.982;2022-11-23T00:32:10;8.68;;;5.70;;
8044;SDS011;4065;48.754;9.982;2022-11-23T00:35:13;13.30;;;8.07;;
8044;SDS011;4065;48.754;9.982;2022-11-23T00:38:17;18.63;;;9.30;;
8044;SDS011;4065;48.754;9.982;2022-11-23T00:41:20;15.52;;;7.90;;
8044;SDS011;4065;48.754;9.982;2022-11-23T00:44:23;10.77;;;6.55;;
8044;SDS011;4065;48.754;9.982;2022-11-23T00:47:25;12.32;;;6.10;;
8044;SDS011;4065;48.754;9.982;2022-11-23T00:50:28;10.07;;;5.93;;
8044;SDS011;4065;48.754;9.982;2022-11-23T00:53:29;11.75;;;6.50;;
8044;SDS011;4065;48.754;9.982;2022-11-23T00:56:31;9.80;;;5.75;;
8044;SDS011;4065;48.754;9.982;2022-11-23T00:59:34;9.77;;;7.00;;
8044;SDS011;4065;48.754;9.982;2022-11-23T01:02:41;9.35;;;5.68;;
8044;SDS011;4065;48.754;9.982;2022-11-23T01:05:44;8.75;;;6.75;;
8044;SDS011;4065;48.754;9.982;2022-11-23T01:08:47;7.03;;;5.63;;
8044;SDS011;4065;48.754;9.982;2022-11-23T01:11:49;12.30;;;8.80;;
8044;SDS011;4065;48.754;9.982;2022-11-23T01:14:51;7.93;;;5.65;;
8044;SDS011;4065;48.754;9.982;2022-11-23T01:17:53;15.52;;;9.85;;
8044;SDS011;4065;48.754;9.982;2022-11-23T01:20:56;11.77;;;8.45;;
8044;SDS011;4065;48.754;9.982;2022-11-23T01:23:58;10.60;;;7.50;;
8044;SDS011;4065;48.754;9.982;2022-11-23T01:26:59;15.57;;;8.80;;
8044;SDS011;4065;48.754;9.982;2022-11-23T01:30:01;13.10;;;7.65;;
8044;SDS011;4065;48.754;9.982;2022-11-23T01:33:03;11.90;;;6.75;;
8044;SDS011;4065;48.754;9.982;2022-11-23T01:36:09;10.00;;;7.75;;
8044;SDS011;4065;48.754;9.982;2022-11-23T01:39:11;9.57;;;6.07;;
8044;SDS011;4065;48.754;9.982;2022-11-23T01:42:13;9.80;;;6.60;;
8044;SDS011;4065;48.754;9.982;2022-11-23T01:45:26;13.95;;;7.20;;
8044;SDS011;4065;48.754;9.982;2022-11-23T01:48:39;7.75;;;5.80;;
8044;SDS011;4065;48.754;9.982;2022-11-23T01:51:45;11.70;;;6.50;;
8044;SDS011;4065;48.754;9.982;2022-11-23T01:54:50;15.40;;;6.00;;
8044;SDS011;4065;48.754;9.982;2022-11-23T01:57:53;8.77;;;5.28;;
8044;SDS011;4065;48.754;9.982;2022-11-23T02:00:58;9.05;;;5.95;;
8044;SDS011;4065;48.754;9.982;2022-11-23T02:04:00;7.70;;;5.63;;
8044;SDS011;4065;48.754;9.982;2022-11-23T02:07:03;6.30;;;4.75;;
8044;SDS011;4065;48.754;9.982;2022-11-23T02:10:06;6.03;;;5.30;;
8044;SDS011;4065;48.754;9.982;2022-11-23T02:13:09;9.88;;;5.85;;
8044;SDS011;4065;48.754;9.982;2022-11-23T02:16:11;10.05;;;5.40;;
8044;SDS011;4065;48.754;9.982;2022-11-23T02:19:15;6.82;;;5.38;;
8044;SDS011;4065;48.754;9.982;2022-11-23T02:22:25;10.32;;;6.25;;
8044;SDS011;4065;48.754;9.982;2022-11-23T02:25:32;22.35;;;12.93;;
8044;SDS011;4065;48.754;9.982;2022-11-23T02:28:41;23.38;;;13.93;;
8044;SDS011;4065;48.754;9.982;2022-11-23T02:31:45;15.38;;;10.43;;
8044;SDS011;4065;48.754;9.982;2022-11-23T02:34:46;14.85;;;10.32;;
8044;SDS011;4065;48.754;9.982;2022-11-23T02:37:48;11.98;;;9.05;;
8044;SDS011;4065;48.754;9.982;2022-11-23T02:40:50;13.98;;;9.10;;
8044;SDS011;4065;48.754;9.982;2022-11-23T02:43:53;10.88;;;8.18;;
8044;SDS011;4065;48.754;9.982;2022-11-23T02:46:56;11.40;;;8.25;;
8044;SDS011;4065;48.754;9.982;2022-11-23T02:49:58;14.23;;;8.50;;
8044;SDS011;4065;48.754;9.982;2022-11-23T02:53:00;13.70;;;8.07;;
8044;SDS011;4065;48.754;9.982;2022-11-23T02:56:01;10.75;;;7.88;;
8044;SDS011;4065;48.754;9.982;2022-11-23T02:59:04;9.85;;;7.85;;
8044;SDS011;4065;48.754;9.982;2022-11-23T03:02:06;9.55;;;7.47;;
8044;SDS011;4065;48.754;9.982;2022-11-23T03:05:08;13.70;;;8.13;;
8044;SDS011;4065;48.754;9.982;2022-11-23T03:08:09;11.20;;;7.38;;
8044;SDS011;4065;48.754;9.982;2022-11-23T03:11:11;9.70;;;7.10;;
8044;SDS011;4065;48.754;9.982;2022-11-23T03:14:15;8.68;;;5.72;;
8044;SDS011;4065;48.754;9.982;2022-11-23T03:17:16;10.57;;;6.25;;
8044;SDS011;4065;48.754;9.982;2022-11-23T03:20:18;13.07;;;7.00;;
8044;SDS011;4065;48.754;9.982;2022-11-23T03:23:20;7.72;;;6.40;;
8044;SDS011;4065;48.754;9.982;2022-11-23T03:26:22;6.57;;;5.85;;
8044;SDS011;4065;48.754;9.982;2022-11-23T03:29:25;7.63;;;5.50;;
8044;SDS011;4065;48.754;9.982;2022-11-23T03:32:26;6.75;;;5.88;;
8044;SDS011;4065;48.754;9.982;2022-11-23T03:35:28;7.05;;;5.95;;
8044;SDS011;4065;48.754;9.982;2022-11-23T03:38:30;14.05;;;8.65;;
8044;SDS011;4065;48.754;9.982;2022-11-23T03:41:31;9.00;;;6.40;;
8044;SDS011;4065;48.754;9.982;2022-11-23T03:44:34;8.65;;;7.53;;
8044;SDS011;4065;48.754;9.982;2022-11-23T03:47:36;7.53;;;6.40;;
8044;SDS011;4065;48.754;9.982;2022-11-23T03:50:38;9.63;;;6.70;;
8044;SDS011;4065;48.754;9.982;2022-11-23T03:53:39;5.95;;;5.35;;
8044;SDS011;4065;48.754;9.982;2022-11-23T03:56:41;10.85;;;5.80;;
8044;SDS011;4065;48.754;9.982;2022-11-23T03:59:44;8.15;;;5.65;;
8044;SDS011;4065;48.754;9.982;2022-11-23T04:02:45;7.65;;;5.18;;
8044;SDS011;4065;48.754;9.982;2022-11-23T04:05:47;8.63;;;6.25;;
8044;SDS011;4065;48.754;9.982;2022-11-23T04:08:49;8.80;;;4.95;;
8044;SDS011;4065;48.754;9.982;2022-11-23T04:11:50;6.50;;;5.90;;
8044;SDS011;4065;48.754;9.982;2022-11-23T04:14:53;11.40;;;6.18;;
8044;SDS011;4065;48.754;9.982;2022-11-23T04:17:55;6.70;;;5.78;;
8044;SDS011;4065;48.754;9.982;2022-11-23T04:20:56;9.10;;;5.30;;
8044;SDS011;4065;48.754;9.982;2022-11-23T04:23:58;6.85;;;5.38;;
8044;SDS011;4065;48.754;9.982;2022-11-23T04:27:00;6.88;;;5.25;;
8044;SDS011;4065;48.754;9.982;2022-11-23T04:30:03;8.20;;;5.30;;
8044;SDS011;4065;48.754;9.982;2022-11-23T04:33:07;7.93;;;6.68;;
8044;SDS011;4065;48.754;9.982;2022-11-23T04:36:11;6.38;;;5.15;;
8044;SDS011;4065;48.754;9.982;2022-11-23T04:39:15;7.97;;;5.40;;
8044;SDS011;4065;48.754;9.982;2022-11-23T04:42:17;61.25;;;26.90;;
8044;SDS011;4065;48.754;9.982;2022-11-23T04:45:20;32.17;;;16.00;;
8044;SDS011;4065;48.754;9.982;2022-11-23T04:48:21;31.75;;;17.05;;
8044;SDS011;4065;48.754;9.982;2022-11-23T04:51:23;17.20;;;11.10;;
8044;SDS011;4065;48.754;9.982;2022-11-23T04:54:25;13.88;;;7.22;;
8044;SDS011;4065;48.754;9.982;2022-11-23T04:57:26;9.45;;;6.65;;
8044;SDS011;4065;48.754;9.982;2022-11-23T05:00:29;21.67;;;13.13;;
8044;SDS011;4065;48.754;9.982;2022-11-23T05:03:31;12.98;;;8.88;;
8044;SDS011;4065;48.754;9.982;2022-11-23T05:06:34;13.13;;;7.68;;
8044;SDS011;4065;48.754;9.982;2022-11-23T05:09:36;12.05;;;7.05;;
8044;SDS011;4065;48.754;9.982;2022-11-23T05:12:38;9.63;;;6.70;;
8044;SDS011;4065;48.754;9.982;2022-11-23T05:15:41;7.72;;;5.88;;
8044;SDS011;4065;48.754;9.982;2022-11-23T05:18:47;6.03;;;5.22;;
8044;SDS011;4065;48.754;9.982;2022-11-23T05:21:48;7.15;;;4.93;;
8044;SDS011;4065;48.754;9.982;2022-11-23T05:24:50;7.07;;;5.20;;
8044;SDS011;4065;48.754;9.982;2022-11-23T05:27:52;5.63;;;5.10;;
8044;SDS011;4065;48.754;9.982;2022-11-23T05:30:55;9.88;;;5.50;;
8044;SDS011;4065;48.754;9.982;2022-11-23T05:33:57;6.82;;;5.15;;
8044;SDS011;4065;48.754;9.982;2022-11-23T05:36:58;5.82;;;5.18;;
8044;SDS011;4065;48.754;9.982;2022-11-23T05:40:00;6.32;;;5.47;;
8044;SDS011;4065;48.754;9.982;2022-11-23T05:43:03;5.50;;;4.95;;
8044;SDS011;4065;48.754;9.982;2022-11-23T05:46:06;6.95;;;5.80;;
8044;SDS011;4065;48.754;9.982;2022-11-23T05:49:08;7.22;;;5.38;;
8044;SDS011;4065;48.754;9.982;2022-11-23T05:52:10;6.22;;;5.50;;
8044;SDS011;4065;48.754;9.982;2022-11-23T05:55:11;12.57;;;10.77;;
8044;SDS011;4065;48.754;9.982;2022-11-23T05:58:13;26.50;;;18.15;;
8044;SDS011;4065;48.754;9.982;2022-11-23T06:01:16;23.38;;;15.43;;
8044;SDS011;4065;48.754;9.982;2022-11-23T06:04:18;20.55;;;13.90;;
8044;SDS011;4065;48.754;9.982;2022-11-23T06:07:19;25.55;;;16.77;;
8044;SDS011;4065;48.754;9.982;2022-11-23T06:10:21;11.82;;;9.48;;
8044;SDS011;4065;48.754;9.982;2022-11-23T06:13:23;12.73;;;8.18;;
8044;SDS011;4065;48.754;9.982;2022-11-23T06:16:26;12.45;;;9.27;;
8044;SDS011;4065;48.754;9.982;2022-11-23T06:19:28;11.57;;;8.13;;
8044;SDS011;4065;48.754;9.982;2022-11-23T06:22:32;9.18;;;8.07;;
8044;SDS011;4065;48.754;9.982;2022-11-23T06:25:33;11.10;;;8.80;;
8044;SDS011;4065;48.754;9.982;2022-11-23T06:28:37;18.17;;;10.93;;
8044;SDS011;4065;48.754;9.982;2022-11-23T06:31:43;19.38;;;13.15;;
8044;SDS011;4065;48.754;9.982;2022-11-23T06:34:45;17.65;;;12.48;;
8044;SDS011;4065;48.754;9.982;2022-11-23T06:37:47;13.52;;;10.73;;
8044;SDS011;4065;48.754;9.982;2022-11-23T06:40:56;15.60;;;11.40;;
8044;SDS011;4065;48.754;9.982;2022-11-23T06:44:01;14.93;;;11.43;;
8044;SDS011;4065;48.754;9.982;2022-11-23T06:47:04;14.27;;;11.55;;
8044;SDS011;4065;48.754;9.982;2022-11-23T06:50:08;16.92;;;11.60;;
8044;SDS011;4065;48.754;9.982;2022-11-23T06:53:10;16.33;;;11.65;;
8044;SDS011;4065;48.754;9.982;2022-11-23T06:56:14;18.15;;;13.27;;
8044;SDS011;4065;48.754;9.982;2022-11-23T06:59:16;18.30;;;11.85;;
8044;SDS011;4065;48.754;9.982;2022-11-23T07:02:19;16.42;;;11.15;;
8044;SDS011;4065;48.754;9.982;2022-11-23T07:05:21;16.88;;;11.65;;
8044;SDS011;4065;48.754;9.982;2022-11-23T07:08:24;12.15;;;7.38;;
8044;SDS011;4065;48.754;9.982;2022-11-23T07:11:25;10.18;;;7.88;;
8044;SDS011;4065;48.754;9.982;2022-11-23T07:14:30;15.63;;;9.80;;
8044;SDS011;4065;48.754;9.982;2022-11-23T07:17:33;10.00;;;8.88;;
8044;SDS011;4065;48.754;9.982;2022-11-23T07:20:39;11.85;;;7.85;;
8044;SDS011;4065;48.754;9.982;2022-11-23T07:23:40;11.15;;;7.72;;
8044;SDS011;4065;48.754;9.982;2022-11-23T07:26:42;13.02;;;6.65;;
8044;SDS011;4065;48.754;9.982;2022-11-23T07:29:44;7.75;;;6.57;;
8044;SDS011;4065;48.754;9.982;2022-11-23T07:32:48;9.45;;;8.23;;
8044;SDS011;4065;48.754;9.982;2022-11-23T07:35:50;13.77;;;7.78;;
8044;SDS011;4065;48.754;9.982;2022-11-23T07:39:10;9.40;;;7.75;;
8044;SDS011;4065;48.754;9.982;2022-11-23T07:42:13;11.02;;;8.30;;
8044;SDS011;4065;48.754;9.982;2022-11-23T07:45:17;14.02;;;9.68;;
8044;SDS011;4065;48.754;9.982;2022-11-23T07:48:23;15.45;;;9.27;;
8044;SDS011;4065;48.754;9.982;2022-11-23T07:51:26;10.77;;;9.10;;
8044;SDS011;4065;48.754;9.982;2022-11-23T07:54:27;9.43;;;7.55;;
8044;SDS011;4065;48.754;9.982;2022-11-23T07:57:32;9.30;;;7.70;;
8044;SDS011;4065;48.754;9.982;2022-11-23T08:00:36;8.35;;;7.13;;
8044;SDS011;4065;48.754;9.982;2022-11-23T08:03:39;34.65;;;31.20;;
8044;SDS011;4065;48.754;9.982;2022-11-23T08:06:41;15.48;;;13.88;;
8044;SDS011;4065;48.754;9.982;2022-11-23T08:09:43;20.23;;;17.63;;
8044;SDS011;4065;48.754;9.982;2022-11-23T08:12:46;14.05;;;12.35;;
8044;SDS011;4065;48.754;9.982;2022-11-23T08:15:49;10.23;;;8.93;;
8044;SDS011;4065;48.754;9.982;2022-11-23T08:18:52;14.65;;;9.18;;
8044;SDS011;4065;48.754;9.982;2022-11-23T08:21:57;12.43;;;9.00;;
8044;SDS011;4065;48.754;9.982;2022-11-23T08:24:59;15.07;;;9.18;;
8044;SDS011;4065;48.754;9.982;2022-11-23T08:28:04;13.70;;;10.98;;
8044;SDS011;4065;48.754;9.982;2022-11-23T08:31:06;15.57;;;11.15;;
8044;SDS011;4065;48.754;9.982;2022-11-23T08:34:09;14.20;;;10.18;;
8044;SDS011;4065;48.754;9.982;2022-11-23T08:37:11;27.02;;;17.40;;
8044;SDS011;4065;48.754;9.982;2022-11-23T08:40:13;11.27;;;9.25;;
8044;SDS011;4065;48.754;9.982;2022-11-23T08:43:15;10.95;;;8.10;;
8044;SDS011;4065;48.754;9.982;2022-11-23T08:46:17;12.18;;;8.07;;
8044;SDS011;4065;48.754;9.982;2022-11-23T08:49:21;12.43;;;6.95;;
8044;SDS011;4065;48.754;9.982;2022-11-23T08:52:22;10.93;;;5.10;;
8044;SDS011;4065;48.754;9.982;2022-11-23T08:55:26;12.32;;;6.55;;
8044;SDS011;4065;48.754;9.982;2022-11-23T08:58:28;8.48;;;6.00;;
8044;SDS011;4065;48.754;9.982;2022-11-23T09:01:30;9.57;;;5.13;;
8044;SDS011;4065;48.754;9.982;2022-11-23T09:04:33;8.00;;;6.03;;
8044;SDS011;4065;48.754;9.982;2022-11-23T09:07:34;10.98;;;7.15;;
8044;SDS011;4065;48.754;9.982;2022-11-23T09:10:36;8.55;;;7.35;;
8044;SDS011;4065;48.754;9.982;2022-11-23T09:13:38;11.68;;;8.20;;
8044;SDS011;4065;48.754;9.982;2022-11-23T09:16:41;8.30;;;6.75;;
8044;SDS011;4065;48.754;9.982;2022-11-23T09:19:44;7.05;;;5.82;;
8044;SDS011;4065;48.754;9.982;2022-11-23T09:22:49;7.47;;;5.90;;
8044;SDS011;4065;48.754;9.982;2022-11-23T09:25:51;8.70;;;5.65;;
8044;SDS011;4065;48.754;9.982;2022-11-23T09:28:53;12.52;;;6.30;;
8044;SDS011;4065;48.754;9.982;2022-11-23T09:31:55;11.80;;;6.13;;
8044;SDS011;4065;48.754;9.982;2022-11-23T09:34:58;7.43;;;5.18;;
8044;SDS011;4065;48.754;9.982;2022-11-23T09:38:05;8.40;;;5.30;;
8044;SDS011;4065;48.754;9.982;2022-11-23T09:41:13;6.75;;;4.85;;
8044;SDS011;4065;48.754;9.982;2022-11-23T09:44:37;11.50;;;6.90;;
8044;SDS011;4065;48.754;9.982;2022-11-23T09:47:53;9.98;;;6.05;;
8044;SDS011;4065;48.754;9.982;2022-11-23T09:51:03;14.05;;;5.68;;
8044;SDS011;4065;48.754;9.982;2022-11-23T09:54:10;7.63;;;5.13;;
8044;SDS011;4065;48.754;9.982;2022-11-23T09:57:23;9.60;;;5.32;;
8044;SDS011;4065;48.754;9.982;2022-11-23T10:00:27;6.10;;;4.60;;
8044;SDS011;4065;48.754;9.982;2022-11-23T10:03:31;7.53;;;3.90;;
8044;SDS011;4065;48.754;9.982;2022-11-23T10:06:37;5.57;;;4.20;;
8044;SDS011;4065;48.754;9.982;2022-11-23T10:09:42;4.82;;;4.18;;
8044;SDS011;4065;48.754;9.982;2022-11-23T10:12:56;5.25;;;3.50;;
8044;SDS011;4065;48.754;9.982;2022-11-23T10:16:19;8.82;;;4.15;;
8044;SDS011;4065;48.754;9.982;2022-11-23T10:19:28;5.00;;;3.30;;
8044;SDS011;4065;48.754;9.982;2022-11-23T10:22:40;8.85;;;3.90;;
8044;SDS011;4065;48.754;9.982;2022-11-23T10:25:47;3.97;;;3.58;;
8044;SDS011;4065;48.754;9.982;2022-11-23T10:28:49;7.35;;;3.85;;
8044;SDS011;4065;48.754;9.982;2022-11-23T10:31:51;5.80;;;4.20;;
8044;SDS011;4065;48.754;9.982;2022-11-23T10:34:57;6.25;;;4.07;;
8044;SDS011;4065;48.754;9.982;2022-11-23T10:38:11;5.40;;;3.60;;
8044;SDS011;4065;48.754;9.982;2022-11-23T10:41:14;6.38;;;4.18;;
8044;SDS011;4065;48.754;9.982;2022-11-23T10:44:27;5.45;;;3.65;;
8044;SDS011;4065;48.754;9.982;2022-11-23T10:47:38;7.03;;;4.45;;
8044;SDS011;4065;48.754;9.982;2022-11-23T10:50:41;5.57;;;3.97;;
8044;SDS011;4065;48.754;9.982;2022-11-23T10:53:45;5.05;;;3.63;;
8044;SDS011;4065;48.754;9.982;2022-11-23T10:56:52;5.80;;;3.97;;
8044;SDS011;4065;48.754;9.982;2022-11-23T10:59:56;7.63;;;3.70;;
8044;SDS011;4065;48.754;9.982;2022-11-23T11:02:59;8.20;;;4.32;;
8044;SDS011;4065;48.754;9.982;2022-11-23T11:06:02;7.35;;;4.53;;
8044;SDS011;4065;48.754;9.982;2022-11-23T11:09:16;10.48;;;4.32;;
8044;SDS011;4065;48.754;9.982;2022-11-23T11:12:20;7.78;;;4.55;;
8044;SDS011;4065;48.754;9.982;2022-11-23T11:15:22;7.35;;;3.92;;
8044;SDS011;4065;48.754;9.982;2022-11-23T11:18:24;6.10;;;3.42;;
8044;SDS011;4065;48.754;9.982;2022-11-23T11:21:30;6.82;;;4.20;;
8044;SDS011;4065;48.754;9.982;2022-11-23T11:24:36;8.00;;;4.05;;
8044;SDS011;4065;48.754;9.982;2022-11-23T11:27:49;10.00;;;4.25;;
8044;SDS011;4065;48.754;9.982;2022-11-23T11:30:53;9.13;;;3.90;;
8044;SDS011;4065;48.754;9.982;2022-11-23T11:34:03;5.72;;;3.60;;
8044;SDS011;4065;48.754;9.982;2022-11-23T11:37:16;9.23;;;4.45;;
8044;SDS011;4065;48.754;9.982;2022-11-23T11:40:48;5.13;;;3.80;;
8044;SDS011;4065;48.754;9.982;2022-11-23T11:43:51;7.70;;;4.18;;
8044;SDS011;4065;48.754;9.982;2022-11-23T11:46:57;4.90;;;3.75;;
8044;SDS011;4065;48.754;9.982;2022-11-23T11:50:05;3.50;;;3.13;;
8044;SDS011;4065;48.754;9.982;2022-11-23T11:53:18;5.00;;;3.17;;
8044;SDS011;4065;48.754;9.982;2022-11-23T11:56:26;6.05;;;2.90;;
8044;SDS011;4065;48.754;9.982;2022-11-23T11:59:31;3.83;;;2.88;;
8044;SDS011;4065;48.754;9.982;2022-11-23T12:02:42;3.78;;;2.78;;
8044;SDS011;4065;48.754;9.982;2022-11-23T12:05:52;3.70;;;2.40;;
8044;SDS011;4065;48.754;9.982;2022-11-23T12:08:58;4.35;;;2.40;;
8044;SDS011;4065;48.754;9.982;2022-11-23T12:12:07;5.72;;;2.50;;
8044;SDS011;4065;48.754;9.982;2022-11-23T12:15:16;3.80;;;2.65;;
8044;SDS011;4065;48.754;9.982;2022-11-23T12:21:58;3.33;;;2.50;;
8044;SDS011;4065;48.754;9.982;2022-11-23T12:25:11;4.85;;;2.17;;
8044;SDS011;4065;48.754;9.982;2022-11-23T12:28:25;3.55;;;2.20;;
8044;SDS011;4065;48.754;9.982;2022-11-23T12:31:39;3.33;;;2.58;;
8044;SDS011;4065;48.754;9.982;2022-11-23T12:34:48;6.00;;;3.13;;
8044;SDS011;4065;48.754;9.982;2022-11-23T12:38:00;9.35;;;2.50;;
8044;SDS011;4065;48.754;9.982;2022-11-23T12:41:17;3.72;;;2.22;;
8044;SDS011;4065;48.754;9.982;2022-11-23T12:45:01;3.58;;;2.30;;
8044;SDS011;4065;48.754;9.982;2022-11-23T12:48:17;3.58;;;2.13;;
8044;SDS011;4065;48.754;9.982;2022-11-23T12:51:25;3.25;;;2.08;;
8044;SDS011;4065;48.754;9.982;2022-11-23T12:54:38;4.43;;;2.22;;
8044;SDS011;4065;48.754;9.982;2022-11-23T12:57:48;5.38;;;2.63;;
8044;SDS011;4065;48.754;9.982;2022-11-23T13:01:00;5.45;;;2.55;;
8044;SDS011;4065;48.754;9.982;2022-11-23T13:08:00;4.35;;;2.10;;
8044;SDS011;4065;48.754;9.982;2022-11-23T13:11:25;4.25;;;2.10;;
8044;SDS011;4065;48.754;9.982;2022-11-23T13:14:38;3.55;;;1.95;;
8044;SDS011;4065;48.754;9.982;2022-11-23T13:17:46;5.00;;;2.17;;
8044;SDS011;4065;48.754;9.982;2022-11-23T13:21:02;3.67;;;2.53;;
8044;SDS011;4065;48.754;9.982;2022-11-23T13:24:25;3.50;;;2.15;;
8044;SDS011;4065;48.754;9.982;2022-11-23T13:27:29;3.92;;;2.40;;
8044;SDS011;4065;48.754;9.982;2022-11-23T13:30:42;4.38;;;2.30;;
8044;SDS011;4065;48.754;9.982;2022-11-23T13:33:46;4.00;;;2.28;;
8044;SDS011;4065;48.754;9.982;2022-11-23T13:36:57;2.80;;;2.00;;
8044;SDS011;4065;48.754;9.982;2022-11-23T13:40:19;4.60;;;2.20;;
8044;SDS011;4065;48.754;9.982;2022-11-23T13:43:23;3.65;;;2.00;;
8044;SDS011;4065;48.754;9.982;2022-11-23T13:46:25;3.85;;;2.30;;
8044;SDS011;4065;48.754;9.982;2022-11-23T13:49:30;2.65;;;1.90;;
8044;SDS011;4065;48.754;9.982;2022-11-23T13:52:33;5.57;;;2.28;;
8044;SDS011;4065;48.754;9.982;2022-11-23T13:55:36;4.45;;;2.20;;
8044;SDS011;4065;48.754;9.982;2022-11-23T13:58:38;4.93;;;2.70;;
8044;SDS011;4065;48.754;9.982;2022-11-23T14:02:21;6.10;;;2.40;;
8044;SDS011;4065;48.754;9.982;2022-11-23T14:09:00;4.97;;;2.10;;
8044;SDS011;4065;48.754;9.982;2022-11-23T14:12:07;4.60;;;2.45;;
8044;SDS011;4065;48.754;9.982;2022-11-23T14:15:18;3.85;;;2.22;;
8044;SDS011;4065;48.754;9.982;2022-11-23T14:21:49;3.40;;;2.45;;
8044;SDS011;4065;48.754;9.982;2022-11-23T14:25:02;5.57;;;2.67;;
8044;SDS011;4065;48.754;9.982;2022-11-23T14:28:35;5.32;;;2.67;;
8044;SDS011;4065;48.754;9.982;2022-11-23T14:32:44;5.65;;;2.90;;
8044;SDS011;4065;48.754;9.982;2022-11-23T14:36:02;5.40;;;3.25;;
8044;SDS011;4065;48.754;9.982;2022-11-23T14:43:22;6.22;;;2.80;;
8044;SDS011;4065;48.754;9.982;2022-11-23T14:46:31;3.20;;;2.88;;
8044;SDS011;4065;48.754;9.982;2022-11-23T14:49:33;6.68;;;3.20;;
8044;SDS011;4065;48.754;9.982;2022-11-23T14:52:35;6.70;;;3.33;;
8044;SDS011;4065;48.754;9.982;2022-11-23T14:55:40;5.00;;;2.90;;
8044;SDS011;4065;48.754;9.982;2022-11-23T14:58:44;5.60;;;3.42;;
8044;SDS011;4065;48.754;9.982;2022-11-23T15:01:50;6.68;;;3.70;;
8044;SDS011;4065;48.754;9.982;2022-11-23T15:04:56;7.07;;;3.35;;
8044;SDS011;4065;48.754;9.982;2022-11-23T15:08:05;5.70;;;4.38;;
8044;SDS011;4065;48.754;9.982;2022-11-23T15:11:12;6.15;;;3.80;;
8044;SDS011;4065;48.754;9.982;2022-11-23T15:14:24;4.20;;;3.30;;
8044;SDS011;4065;48.754;9.982;2022-11-23T15:17:26;6.60;;;3.80;;
8044;SDS011;4065;48.754;9.982;2022-11-23T15:20:30;7.97;;;3.60;;
8044;SDS011;4065;48.754;9.982;2022-11-23T15:23:34;6.43;;;3.67;;
8044;SDS011;4065;48.754;9.982;2022-11-23T15:26:37;6.25;;;4.68;;
8044;SDS011;4065;48.754;9.982;2022-11-23T15:29:54;9.13;;;4.85;;
8044;SDS011;4065;48.754;9.982;2022-11-23T15:32:57;8.75;;;4.15;;
8044;SDS011;4065;48.754;9.982;2022-11-23T15:36:04;5.35;;;4.35;;
8044;SDS011;4065;48.754;9.982;2022-11-23T15:39:06;8.93;;;5.32;;
8044;SDS011;4065;48.754;9.982;2022-11-23T15:42:16;8.13;;;5.38;;
8044;SDS011;4065;48.754;9.982;2022-11-23T15:45:34;8.48;;;5.15;;
8044;SDS011;4065;48.754;9.982;2022-11-23T15:48:54;11.93;;;5.47;;
8044;SDS011;4065;48.754;9.982;2022-11-23T15:52:02;20.35;;;11.13;;
8044;SDS011;4065;48.754;9.982;2022-11-23T15:55:05;17.25;;;9.48;;
8044;SDS011;4065;48.754;9.982;2022-11-23T15:58:08;11.50;;;7.03;;
8044;SDS011;4065;48.754;9.982;2022-11-23T16:01:15;13.50;;;8.07;;
8044;SDS011;4065;48.754;9.982;2022-11-23T16:04:22;13.98;;;11.48;;
8044;SDS011;4065;48.754;9.982;2022-11-23T16:07:27;8.90;;;7.68;;
8044;SDS011;4065;48.754;9.982;2022-11-23T16:10:30;10.98;;;7.68;;
8044;SDS011;4065;48.754;9.982;2022-11-23T16:13:33;12.13;;;7.45;;
8044;SDS011;4065;48.754;9.982;2022-11-23T16:16:42;15.55;;;9.23;;
8044;SDS011;4065;48.754;9.982;2022-11-23T16:20:16;36.35;;;17.58;;
8044;SDS011;4065;48.754;9.982;2022-11-23T16:23:40;36.50;;;17.65;;
8044;SDS011;4065;48.754;9.982;2022-11-23T16:26:45;49.22;;;22.17;;
8044;SDS011;4065;48.754;9.982;2022-11-23T16:29:49;25.30;;;13.57;;
8044;SDS011;4065;48.754;9.982;2022-11-23T16:32:53;26.65;;;9.88;;
8044;SDS011;4065;48.754;9.982;2022-11-23T16:35:54;15.45;;;10.07;;
8044;SDS011;4065;48.754;9.982;2022-11-23T16:38:59;10.80;;;7.32;;
8044;SDS011;4065;48.754;9.982;2022-11-23T16:42:00;76.13;;;40.13;;
8044;SDS011;4065;48.754;9.982;2022-11-23T16:45:03;26.85;;;15.35;;
8044;SDS011;4065;48.754;9.982;2022-11-23T16:48:19;20.30;;;12.15;;
8044;SDS011;4065;48.754;9.982;2022-11-23T16:51:38;23.05;;;14.20;;
8044;SDS011;4065;48.754;9.982;2022-11-23T16:54:39;20.25;;;11.23;;
8044;SDS011;4065;48.754;9.982;2022-11-23T16:57:41;13.40;;;10.07;;
8044;SDS011;4065;48.754;9.982;2022-11-23T17:00:46;17.08;;;9.88;;
8044;SDS011;4065;48.754;9.982;2022-11-23T17:03:50;66.85;;;22.40;;
8044;SDS011;4065;48.754;9.982;2022-11-23T17:06:51;70.20;;;23.05;;
8044;SDS011;4065;48.754;9.982;2022-11-23T17:09:53;65.40;;;22.65;;
8044;SDS011;4065;48.754;9.982;2022-11-23T17:12:58;81.97;;;30.17;;
8044;SDS011;4065;48.754;9.982;2022-11-23T17:16:00;80.20;;;35.47;;
8044;SDS011;4065;48.754;9.982;2022-11-23T17:19:04;108.38;;;43.38;;
8044;SDS011;4065;48.754;9.982;2022-11-23T17:22:06;28.10;;;12.85;;
8044;SDS011;4065;48.754;9.982;2022-11-23T17:25:19;106.05;;;37.75;;
8044;SDS011;4065;48.754;9.982;2022-11-23T17:29:11;7.20;;;5.20;;
8044;SDS011;4065;48.754;9.982;2022-11-23T17:32:23;23.38;;;11.27;;
8044;SDS011;4065;48.754;9.982;2022-11-23T17:35:26;11.23;;;5.05;;
8044;SDS011;4065;48.754;9.982;2022-11-23T17:38:28;33.83;;;16.33;;
8044;SDS011;4065;48.754;9.982;2022-11-23T17:41:30;36.38;;;18.70;;
8044;SDS011;4065;48.754;9.982;2022-11-23T17:44:32;33.80;;;17.30;;
8044;SDS011;4065;48.754;9.982;2022-11-23T17:47:35;15.20;;;9.35;;
8044;SDS011;4065;48.754;9.982;2022-11-23T17:50:40;16.35;;;8.70;;
8044;SDS011;4065;48.754;9.982;2022-11-23T17:53:42;12.48;;;6.55;;
8044;SDS011;4065;48.754;9.982;2022-11-23T17:56:44;11.38;;;6.65;;
8044;SDS011;4065;48.754;9.982;2022-11-23T17:59:46;10.23;;;6.30;;
8044;SDS011;4065;48.754;9.982;2022-11-23T18:02:48;7.32;;;5.30;;
8044;SDS011;4065;48.754;9.982;2022-11-23T18:05:54;5.55;;;4.70;;
8044;SDS011;4065;48.754;9.982;2022-11-23T18:08:56;8.70;;;5.47;;
8044;SDS011;4065;48.754;9.982;2022-11-23T18:11:59;11.48;;;7.78;;
8044;SDS011;4065;48.754;9.982;2022-11-23T18:15:01;10.65;;;7.68;;
8044;SDS011;4065;48.754;9.982;2022-11-23T18:18:05;19.52;;;9.43;;
8044;SDS011;4065;48.754;9.982;2022-11-23T18:21:09;16.27;;;9.05;;
8044;SDS011;4065;48.754;9.982;2022-11-23T18:24:22;21.55;;;11.40;;
8044;SDS011;4065;48.754;9.982;2022-11-23T18:27:24;10.95;;;8.15;;
8044;SDS011;4065;48.754;9.982;2022-11-23T18:30:28;8.63;;;7.18;;
8044;SDS011;4065;48.754;9.982;2022-11-23T18:33:30;8.45;;;7.43;;
8044;SDS011;4065;48.754;9.982;2022-11-23T18:36:33;7.28;;;5.13;;
8044;SDS011;4065;48.754;9.982;2022-11-23T18:39:35;8.55;;;5.63;;
8044;SDS011;4065;48.754;9.982;2022-11-23T18:42:38;9.15;;;6.28;;
8044;SDS011;4065;48.754;9.982;2022-11-23T18:45:40;13.52;;;6.05;;
8044;SDS011;4065;48.754;9.982;2022-11-23T18:48:43;8.98;;;5.07;;
8044;SDS011;4065;48.754;9.982;2022-11-23T18:51:50;6.00;;;4.43;;
8044;SDS011;4065;48.754;9.982;2022-11-23T18:54:52;6.43;;;4.15;;
8044;SDS011;4065;48.754;9.982;2022-11-23T18:57:54;5.70;;;4.90;;
8044;SDS011;4065;48.754;9.982;2022-11-23T19:00:56;5.07;;;4.57;;
8044;SDS011;4065;48.754;9.982;2022-11-23T19:03:59;33.40;;;15.52;;
8044;SDS011;4065;48.754;9.982;2022-11-23T19:07:02;16.40;;;9.48;;
8044;SDS011;4065;48.754;9.982;2022-11-23T19:10:04;9.25;;;5.97;;
8044;SDS011;4065;48.754;9.982;2022-11-23T19:13:06;6.22;;;5.63;;
8044;SDS011;4065;48.754;9.982;2022-11-23T19:16:08;6.93;;;4.60;;
8044;SDS011;4065;48.754;9.982;2022-11-23T19:19:14;5.32;;;4.82;;
8044;SDS011;4065;48.754;9.982;2022-11-23T19:22:18;6.13;;;5.45;;